Time;durP1;ratioP1;P1;durP2;ratioP2;P2;SDS_P1;SDS_P2;PMS_P1;PMS_P2;Temp;Humidity;BMP_temperature;BMP_pressure;BME280_temperature;BME280_humidity;BME280_pressure;Samples;Min_cycle;Max_cycle;Signal;HPM_P1;HPM_P2
2022/12/19 00:02:25;;;;;;;14.13;12.82;;;;;;;2.16;61.46;96641.50;5114984;28;20195;-71
2022/12/19 00:04:51;;;;;;;15.48;14.07;;;;;;;2.17;62.30;96645.84;5114757;28;20594;-71
2022/12/19 00:07:19;;;;;;;15.20;13.80;;;;;;;2.17;61.94;96647.75;5115721;28;20195;-70
2022/12/19 00:09:46;;;;;;;14.65;13.35;;;;;;;2.15;61.65;96641.75;5115680;28;20224;-71
2022/12/19 00:12:13;;;;;;;15.02;13.73;;;;;;;2.09;61.94;96656.41;5114807;28;20199;-71
2022/12/19 00:14:40;;;;;;;14.80;13.50;;;;;;;2.10;62.20;96650.69;5114491;28;20203;-71
2022/12/19 00:17:06;;;;;;;15.30;13.90;;;;;;;2.05;62.44;96653.38;5114638;28;20204;-71
2022/12/19 00:19:33;;;;;;;14.57;13.18;;;;;;;2.11;62.72;96665.97;5114920;28;20199;-71
2022/12/19 00:22:00;;;;;;;15.18;13.77;;;;;;;2.15;62.47;96658.09;5118705;28;20659;-71
2022/12/19 00:24:28;;;;;;;14.77;13.38;;;;;;;2.13;62.08;96658.34;5118513;28;20327;-71
2022/12/19 00:26:55;;;;;;;15.02;13.63;;;;;;;2.09;62.13;96661.84;5118509;28;20195;-72
2022/12/19 00:29:22;;;;;;;15.55;14.15;;;;;;;2.06;62.07;96662.38;5119319;28;20290;-72
2022/12/19 00:31:48;;;;;;;14.88;13.57;;;;;;;2.06;62.44;96665.91;5118406;28;20205;-72
2022/12/19 00:34:15;;;;;;;13.90;12.70;;;;;;;2.05;62.34;96660.72;5118530;28;20207;-71
2022/12/19 00:36:42;;;;;;;14.40;13.10;;;;;;;2.05;62.16;96671.63;5119462;28;20196;-71
2022/12/19 00:39:10;;;;;;;14.60;13.25;;;;;;;2.05;63.22;96666.19;5118600;28;20200;-71
2022/12/19 00:41:40;;;;;;;15.88;14.40;;;;;;;2.06;62.77;96659.63;5119137;28;20199;-71
2022/12/19 00:44:10;;;;;;;15.57;14.07;;;;;;;2.02;62.93;96664.78;5119072;28;20649;-71
2022/12/19 00:46:37;;;;;;;15.02;13.63;;;;;;;2.06;63.18;96667.81;5118561;28;20215;-71
2022/12/19 00:49:05;;;;;;;14.75;13.45;;;;;;;2.10;62.71;96669.75;5118072;28;20199;-71
2022/12/19 00:51:33;;;;;;;15.02;13.65;;;;;;;2.11;62.86;96673.31;5118748;28;20489;-72
2022/12/19 00:54:01;;;;;;;15.30;13.90;;;;;;;2.13;62.84;96665.69;5118126;28;20218;-71
2022/12/19 00:56:30;;;;;;;14.93;13.52;;;;;;;2.10;63.32;96666.19;5118259;28;20532;-71
2022/12/19 00:58:58;;;;;;;15.77;14.27;;;;;;;2.09;62.71;96670.00;5119041;28;20180;-72
2022/12/19 01:01:27;;;;;;;14.75;13.45;;;;;;;2.08;62.84;96671.09;5117916;28;20200;-72
2022/12/19 01:03:54;;;;;;;15.38;13.95;;;;;;;2.14;63.25;96678.22;5118394;28;20199;-72
2022/12/19 01:06:21;;;;;;;15.88;14.38;;;;;;;2.10;63.14;96675.19;5118888;28;20200;-72
2022/12/19 01:08:48;;;;;;;15.38;13.77;;;;;;;2.12;62.86;96675.75;5117942;28;20204;-72
2022/12/19 01:11:14;;;;;;;16.35;14.77;;;;;;;2.09;63.52;96680.91;5118556;28;20198;-71
2022/12/19 01:13:40;;;;;;;14.93;13.55;;;;;;;2.06;63.35;96679.50;5118748;28;20196;-71
2022/12/19 01:16:12;;;;;;;16.63;15.02;;;;;;;2.07;64.07;96677.59;5118189;28;20198;-71
2022/12/19 01:18:39;;;;;;;15.30;13.90;;;;;;;2.04;63.94;96672.72;5117589;28;20199;-71
2022/12/19 01:21:08;;;;;;;15.35;13.90;;;;;;;2.07;64.04;96673.00;5117459;28;20679;-71
2022/12/19 01:23:36;;;;;;;15.50;14.10;;;;;;;2.10;63.90;96685.25;5118122;28;20195;-71
2022/12/19 01:26:03;;;;;;;15.60;14.20;;;;;;;2.09;63.54;96683.63;5117417;28;20230;-71
2022/12/19 01:28:30;;;;;;;15.65;14.15;;;;;;;2.11;64.06;96678.75;5117620;28;20204;-71
2022/12/19 01:30:57;;;;;;;14.63;13.32;;;;;;;2.11;63.57;96684.19;5117270;28;20207;-71
2022/12/19 01:33:25;;;;;;;15.43;14.00;;;;;;;2.09;63.30;96689.06;5117450;28;20196;-71
2022/12/19 01:35:52;;;;;;;15.45;14.05;;;;;;;2.08;63.49;96682.00;5117714;28;20207;-71
2022/12/19 01:38:20;;;;;;;15.68;14.18;;;;;;;2.04;63.65;96678.97;5117616;28;20203;-71
2022/12/19 01:40:51;;;;;;;15.38;13.98;;;;;;;2.05;63.42;96677.06;5117956;28;20623;-71
2022/12/19 01:43:21;;;;;;;14.45;13.15;;;;;;;2.04;63.46;96676.25;5117568;28;20184;-71
2022/12/19 01:45:50;;;;;;;15.98;14.48;;;;;;;2.07;63.20;96674.88;5118170;28;20302;-71
2022/12/19 01:48:19;;;;;;;15.48;14.07;;;;;;;2.09;63.95;96684.44;5117918;28;20191;-71
2022/12/19 01:50:53;;;;;;;15.85;14.25;;;;;;;2.08;63.56;96674.63;5117764;28;20545;-71
2022/12/19 01:53:21;;;;;;;15.25;13.85;;;;;;;2.05;63.17;96675.16;5118034;28;20253;-71
2022/12/19 01:55:49;;;;;;;15.75;14.25;;;;;;;2.00;63.37;96674.28;5118172;28;20188;-71
2022/12/19 01:58:15;;;;;;;15.18;13.77;;;;;;;1.99;63.80;96664.47;5118006;28;20194;-71
2022/12/19 02:00:43;;;;;;;15.88;14.48;;;;;;;1.96;64.26;96667.72;5116687;28;20206;-71
2022/12/19 02:03:13;;;;;;;15.32;13.93;;;;;;;2.04;63.73;96665.34;5116669;28;20207;-71
2022/12/19 02:05:40;;;;;;;14.77;13.40;;;;;;;2.06;63.86;96670.53;5116850;28;20669;-71
2022/12/19 02:08:08;;;;;;;15.55;14.05;;;;;;;2.02;63.78;96672.13;5116817;28;20606;-71
2022/12/19 02:10:35;;;;;;;14.45;13.18;;;;;;;1.97;64.36;96664.75;5116965;28;20195;-72
2022/12/19 02:13:02;;;;;;;15.82;14.30;;;;;;;1.98;64.04;96660.94;5116547;28;20199;-71
2022/12/19 02:15:33;;;;;;;15.35;13.85;;;;;;;1.96;63.57;96665.84;5116345;28;20521;-71
2022/12/19 02:18:25;;;;;;;15.50;14.10;;;;;;;1.94;63.75;96665.25;5116521;28;20191;-71
2022/12/19 02:21:14;;;;;;;16.08;14.57;;;;;;;1.85;63.78;96667.66;5117292;28;20204;-71
2022/12/19 02:24:12;;;;;;;15.57;14.18;;;;;;;1.86;64.22;96665.75;5117637;27;20493;-72
2022/12/19 02:27:39;;;;;;;15.88;14.35;;;;;;;1.87;64.02;96672.81;5098728;28;20238;-72
2022/12/19 02:30:09;;;;;;;16.13;14.63;;;;;;;1.91;63.70;96682.91;5037450;28;20303;-72
2022/12/19 02:32:45;;;;;;;15.48;14.07;;;;;;;1.85;63.40;96681.25;5058312;28;20633;-72
2022/12/19 02:35:20;;;;;;;16.42;14.93;;;;;;;1.83;63.81;96685.31;5086513;28;20635;-72
2022/12/19 02:37:50;;;;;;;16.25;14.75;;;;;;;1.83;64.43;96691.56;5116455;28;20192;-72
2022/12/19 02:40:20;;;;;;;15.70;14.30;;;;;;;1.90;64.46;96688.63;5116092;28;20191;-72
2022/12/19 02:42:50;;;;;;;15.32;13.88;;;;;;;1.92;64.04;96684.59;5115263;28;20248;-72
2022/12/19 02:45:18;;;;;;;15.65;14.18;;;;;;;1.92;64.33;96687.31;5115962;28;20217;-72
2022/12/19 02:47:46;;;;;;;15.70;14.20;;;;;;;1.92;63.51;96684.59;5116238;28;20192;-72
2022/12/19 02:50:13;;;;;;;16.08;14.57;;;;;;;1.91;63.95;96672.03;5115957;28;20199;-72
2022/12/19 02:52:50;;;;;;;14.93;13.55;;;;;;;1.86;63.86;96669.28;5115795;28;20192;-72
2022/12/19 02:55:21;;;;;;;15.45;14.05;;;;;;;1.84;63.71;96670.63;5116147;28;20191;-72
2022/12/19 02:58:06;;;;;;;15.73;14.23;;;;;;;1.76;63.37;96665.66;5115986;28;20202;-72
2022/12/19 03:00:36;;;;;;;15.27;13.88;;;;;;;1.75;64.43;96664.00;5115584;28;20191;-71
2022/12/19 03:03:11;;;;;;;16.17;14.73;;;;;;;1.74;64.27;96663.16;5115526;28;20200;-71
2022/12/19 03:05:45;;;;;;;15.57;14.10;;;;;;;1.75;64.03;96653.13;5115772;28;20226;-71
2022/12/19 03:08:16;;;;;;;16.30;14.70;;;;;;;1.67;64.50;96651.69;5116585;28;20183;-72
2022/12/19 03:10:45;;;;;;;15.32;13.93;;;;;;;1.63;63.90;96654.13;5115685;28;20199;-72
2022/12/19 03:13:14;;;;;;;16.25;14.75;;;;;;;1.63;64.76;96656.00;5115775;28;20195;-71
2022/12/19 03:15:42;;;;;;;15.95;14.38;;;;;;;1.56;64.33;96655.38;5116048;28;20639;-71
2022/12/19 03:18:11;;;;;;;17.48;15.77;;;;;;;1.56;64.44;96656.22;5115500;28;20203;-71
2022/12/19 03:20:46;;;;;;;16.35;14.85;;;;;;;1.60;64.39;96653.81;5116496;28;20199;-71
2022/12/19 03:23:13;;;;;;;17.13;15.50;;;;;;;1.59;64.69;96663.84;5116220;28;20627;-71
2022/12/19 03:25:41;;;;;;;16.13;14.57;;;;;;;1.58;64.38;96669.56;5115293;28;20219;-71
2022/12/19 03:28:13;;;;;;;17.13;15.57;;;;;;;1.59;64.02;96663.84;5116128;28;20241;-71
2022/12/19 03:30:41;;;;;;;16.40;14.90;;;;;;;1.59;64.28;96663.03;5115854;28;20188;-71
2022/12/19 03:33:11;;;;;;;16.23;14.63;;;;;;;1.60;64.29;96673.66;5116076;28;20184;-71
2022/12/19 03:35:39;;;;;;;15.55;14.15;;;;;;;1.59;64.67;96673.91;5116176;28;20180;-71
2022/12/19 03:38:07;;;;;;;16.23;14.65;;;;;;;1.61;63.89;96682.66;5115301;28;20207;-72
2022/12/19 03:40:38;;;;;;;15.25;13.95;;;;;;;1.56;64.55;96685.28;5115323;28;20502;-71
2022/12/19 03:43:08;;;;;;;15.35;13.95;;;;;;;1.58;64.78;96689.41;5115053;28;20222;-72
2022/12/19 03:45:42;;;;;;;15.63;14.13;;;;;;;1.60;64.36;96683.72;5115059;28;20548;-72
2022/12/19 03:48:15;;;;;;;16.38;14.75;;;;;;;1.58;64.45;96680.44;5115335;28;20191;-72
2022/12/19 03:50:48;;;;;;;16.38;14.82;;;;;;;1.60;63.97;96683.72;5115856;28;20246;-71
2022/12/19 03:53:26;;;;;;;14.95;13.55;;;;;;;1.56;64.08;96691.56;5115747;28;20592;-71
2022/12/19 03:55:56;;;;;;;15.63;14.20;;;;;;;1.53;64.42;96688.56;5113817;28;20604;-72
2022/12/19 03:58:26;;;;;;;16.48;14.88;;;;;;;1.47;64.57;96698.53;5115114;28;20203;-72
2022/12/19 04:00:54;;;;;;;16.60;15.10;;;;;;;1.46;63.93;96699.63;5114510;28;20187;-72
2022/12/19 04:03:23;;;;;;;15.57;14.18;;;;;;;1.45;64.79;96706.13;5114778;28;20221;-72
2022/12/19 04:05:50;;;;;;;16.05;14.55;;;;;;;1.44;64.85;96699.03;5114895;28;20211;-72
2022/12/19 04:08:19;;;;;;;15.75;14.25;;;;;;;1.42;64.70;96712.91;5115805;28;20244;-72
2022/12/19 04:10:49;;;;;;;16.23;14.70;;;;;;;1.42;64.98;96717.53;5114598;28;20195;-71
2022/12/19 04:13:18;;;;;;;15.50;14.00;;;;;;;1.44;65.11;96716.19;5115336;28;20196;-72
2022/12/19 04:15:52;;;;;;;16.17;14.68;;;;;;;1.42;64.26;96721.06;5115530;28;20187;-72
2022/12/19 04:18:19;;;;;;;16.42;14.93;;;;;;;1.46;64.52;96715.13;5114855;28;20192;-72
2022/12/19 04:20:52;;;;;;;15.32;13.93;;;;;;;1.46;64.02;96721.38;5114518;28;20199;-72
2022/12/19 04:23:23;;;;;;;16.27;14.70;;;;;;;1.44;64.04;96720.78;5114879;28;20277;-72
2022/12/19 04:25:54;;;;;;;15.35;13.95;;;;;;;1.36;63.84;96722.06;5114604;28;20215;-72
2022/12/19 04:28:25;;;;;;;15.65;14.15;;;;;;;1.36;64.04;96721.25;5115652;28;20187;-71
2022/12/19 04:30:53;;;;;;;16.42;14.93;;;;;;;1.30;64.33;96723.06;5115163;28;20238;-71
2022/12/19 04:33:20;;;;;;;15.80;14.30;;;;;;;1.29;64.38;96718.72;5114476;28;20200;-71
2022/12/19 04:35:50;;;;;;;16.65;15.05;;;;;;;1.33;64.47;96713.59;5114656;28;20203;-72
2022/12/19 04:38:20;;;;;;;16.60;14.98;;;;;;;1.36;64.05;96711.19;5115441;28;20184;-72
2022/12/19 04:40:47;;;;;;;16.23;14.63;;;;;;;1.34;63.95;96718.78;5114483;28;20249;-72
2022/12/19 04:43:13;;;;;;;16.05;14.55;;;;;;;1.34;63.97;96715.22;5115361;28;20203;-72
2022/12/19 04:45:40;;;;;;;17.00;15.40;;;;;;;1.32;63.99;96731.81;5114233;28;20550;-72
2022/12/19 04:48:07;;;;;;;16.48;14.88;;;;;;;1.33;64.49;96729.91;5115222;28;20564;-71
2022/12/19 04:50:34;;;;;;;17.33;15.52;;;;;;;1.36;64.14;96727.50;5115306;28;20191;-71
2022/12/19 04:53:03;;;;;;;17.25;15.55;;;;;;;1.33;63.64;96729.91;5114372;28;20218;-71
2022/12/19 04:55:29;;;;;;;16.17;14.63;;;;;;;1.30;64.30;96723.06;5114348;28;20195;-71
2022/12/19 04:57:56;;;;;;;16.58;14.98;;;;;;;1.33;63.99;96732.63;5115118;28;20172;-71
2022/12/19 05:00:23;;;;;;;17.20;15.70;;;;;;;1.32;64.49;96728.28;5114408;28;20543;-71
2022/12/19 05:02:49;;;;;;;17.13;15.52;;;;;;;1.36;64.08;96727.50;5114256;28;20202;-71
2022/12/19 05:05:18;;;;;;;18.05;16.45;;;;;;;1.34;64.01;96728.81;5115193;28;20199;-71
2022/12/19 05:07:45;;;;;;;17.25;15.65;;;;;;;1.29;63.88;96736.94;5117190;28;20286;-72
2022/12/19 05:10:14;;;;;;;17.95;16.35;;;;;;;1.28;63.94;96738.84;5117076;28;20468;-73
2022/12/19 05:12:40;;;;;;;17.33;15.63;;;;;;;1.27;64.18;96737.19;5118871;28;20191;-71
2022/12/19 05:15:08;;;;;;;16.05;14.52;;;;;;;1.23;64.55;96738.75;5118626;28;20196;-73
2022/12/19 05:17:35;;;;;;;16.52;14.90;;;;;;;1.27;64.83;96739.91;5117821;28;20194;-73
2022/12/19 05:20:02;;;;;;;16.85;15.25;;;;;;;1.34;64.14;96731.53;5117539;28;20200;-73
2022/12/19 05:22:29;;;;;;;16.60;15.00;;;;;;;1.34;63.93;96736.97;5118186;28;20232;-70
2022/12/19 05:24:56;;;;;;;16.67;15.07;;;;;;;1.34;64.10;96736.97;5118654;28;20191;-70
2022/12/19 05:27:24;;;;;;;16.67;15.15;;;;;;;1.37;64.43;96731.84;5118443;28;20215;-70
2022/12/19 05:29:51;;;;;;;15.25;13.85;;;;;;;1.41;63.82;96741.16;5118673;28;20252;-70
2022/12/19 05:32:18;;;;;;;16.90;15.38;;;;;;;1.37;64.04;96734.59;5117535;28;20204;-70
2022/12/19 05:34:45;;;;;;;16.33;14.75;;;;;;;1.36;64.15;96741.09;5117203;28;20200;-70
2022/12/19 05:37:12;;;;;;;16.27;14.75;;;;;;;1.38;63.67;96749.00;5117363;28;20584;-70
2022/12/19 05:39:39;;;;;;;15.70;14.32;;;;;;;1.41;63.87;96745.78;5118076;28;20191;-70
2022/12/19 05:42:06;;;;;;;16.02;14.50;;;;;;;1.39;63.62;96743.31;5118369;28;20207;-70
2022/12/19 05:44:34;;;;;;;16.25;14.75;;;;;;;1.40;63.83;96736.78;5117492;28;20497;-70
2022/12/19 05:47:00;;;;;;;17.63;15.95;;;;;;;1.42;63.59;96733.84;5118083;28;20212;-71
2022/12/19 05:49:27;;;;;;;16.38;14.82;;;;;;;1.38;64.25;96749.84;5117348;28;20211;-70
2022/12/19 05:51:54;;;;;;;16.63;15.02;;;;;;;1.39;63.33;96742.50;5117464;28;20207;-70
2022/12/19 05:54:21;;;;;;;16.92;15.23;;;;;;;1.37;64.22;96750.06;5117158;28;20192;-70
2022/12/19 05:56:47;;;;;;;16.20;14.65;;;;;;;1.37;64.27;96753.59;5117031;28;20196;-70
2022/12/19 05:59:14;;;;;;;15.88;14.40;;;;;;;1.35;64.41;96749.53;5117071;28;20527;-70
2022/12/19 06:01:42;;;;;;;17.70;16.00;;;;;;;1.36;64.15;96746.53;5117155;28;20187;-70
2022/12/19 06:04:10;;;;;;;17.80;16.00;;;;;;;1.36;64.37;96748.44;5116825;28;20541;-70
2022/12/19 06:06:36;;;;;;;17.00;15.30;;;;;;;1.33;64.08;96755.19;5117703;28;20218;-70
2022/12/19 06:09:03;;;;;;;15.88;14.27;;;;;;;1.30;63.59;96758.41;5116519;28;20210;-70
2022/12/19 06:11:30;;;;;;;16.05;14.50;;;;;;;1.30;63.34;96754.88;5117129;28;20203;-70
2022/12/19 06:13:57;;;;;;;15.25;13.85;;;;;;;1.33;63.96;96748.94;5117013;28;20260;-70
2022/12/19 06:16:25;;;;;;;14.77;13.38;;;;;;;1.27;63.77;96755.38;5117037;28;20192;-70
2022/12/19 06:18:53;;;;;;;14.80;13.40;;;;;;;1.27;63.48;96758.94;5115640;28;20657;-70
2022/12/19 06:21:22;;;;;;;16.83;15.20;;;;;;;1.28;63.89;96757.88;5116362;28;20227;-70
2022/12/19 06:23:49;;;;;;;17.23;15.52;;;;;;;1.30;63.47;96769.28;5116606;28;20208;-70
2022/12/19 06:26:19;;;;;;;15.27;13.77;;;;;;;1.32;63.29;96767.16;5117345;28;20196;-70
2022/12/19 06:28:46;;;;;;;16.52;14.93;;;;;;;1.37;63.55;96766.38;5116580;28;20206;-70
2022/12/19 06:31:14;;;;;;;16.60;15.00;;;;;;;1.42;63.83;96761.03;5116576;28;20231;-70
2022/12/19 06:33:41;;;;;;;16.48;14.88;;;;;;;1.44;63.81;96764.31;5116223;28;20643;-70
2022/12/19 06:36:12;;;;;;;16.25;14.65;;;;;;;1.51;64.01;96770.38;5116838;28;20210;-70
2022/12/19 06:38:39;;;;;;;15.52;13.95;;;;;;;1.54;63.71;96769.88;5116988;28;20591;-70
2022/12/19 06:43:50;;;;;;;15.13;13.82;;;;;;;1.56;63.20;96777.75;5116533;28;20202;-70
2022/12/19 06:46:17;;;;;;;15.80;14.30;;;;;;;1.59;63.47;96772.63;5116414;28;20196;-70
2022/12/19 06:48:43;;;;;;;15.93;14.48;;;;;;;1.56;62.97;96769.59;5115811;28;20200;-70
2022/12/19 06:51:11;;;;;;;17.67;15.98;;;;;;;1.59;63.74;96782.69;5115699;28;20200;-70
2022/12/19 06:53:39;;;;;;;17.52;15.88;;;;;;;1.55;63.39;96787.00;5116062;28;20203;-70
2022/12/19 06:56:06;;;;;;;18.00;16.20;;;;;;;1.55;63.42;96793.25;5116243;28;20282;-70
2022/12/19 06:58:33;;;;;;;16.88;15.15;;;;;;;1.59;63.52;96790.84;5115587;28;20195;-70
2022/12/19 07:01:00;;;;;;;17.13;15.32;;;;;;;1.57;63.51;96795.75;5115750;28;20200;-70
2022/12/19 07:03:30;;;;;;;16.48;14.88;;;;;;;1.62;63.44;96796.59;5116669;28;20179;-70
2022/12/19 07:05:57;;;;;;;15.95;14.45;;;;;;;1.66;63.44;96800.47;5115687;28;20211;-70
2022/12/19 07:08:33;;;;;;;16.83;15.23;;;;;;;1.68;63.41;96798.31;5116307;28;20208;-70
2022/12/19 07:11:00;;;;;;;16.70;15.10;;;;;;;1.61;63.13;96803.13;5115269;28;20206;-70
2022/12/19 07:13:27;;;;;;;18.17;16.33;;;;;;;1.60;63.39;96812.38;5116849;28;20195;-70
2022/12/19 07:15:58;;;;;;;19.27;17.30;;;;;;;1.62;64.00;96810.22;5116204;28;20195;-70
2022/12/19 07:18:24;;;;;;;18.20;16.50;;;;;;;1.65;63.74;96811.59;5115267;28;20539;-70
2022/12/19 07:20:51;;;;;;;19.60;17.70;;;;;;;1.68;63.01;96808.38;5114693;28;20215;-70
2022/12/19 07:23:20;;;;;;;20.27;18.20;;;;;;;1.59;63.55;96815.34;5116059;28;20184;-70
2022/12/19 07:25:48;;;;;;;20.52;18.50;;;;;;;1.54;63.53;96816.09;5115907;28;20195;-70
2022/12/19 07:28:16;;;;;;;20.80;18.42;;;;;;;1.62;64.33;96812.13;5116183;28;20208;-70
2022/12/19 07:30:44;;;;;;;20.48;18.38;;;;;;;1.61;64.05;96819.47;5114780;28;20286;-70
2022/12/19 07:33:10;;;;;;;19.88;17.95;;;;;;;1.60;63.98;96817.81;5114927;28;20200;-70
2022/12/19 07:35:37;;;;;;;20.77;18.67;;;;;;;1.62;64.26;96826.53;5114950;28;20206;-70
2022/12/19 07:38:06;;;;;;;21.17;19.05;;;;;;;1.68;63.83;96825.53;5116172;28;20199;-70
2022/12/19 07:40:33;;;;;;;20.58;18.42;;;;;;;1.72;63.25;96827.75;5116006;28;20215;-70
2022/12/19 07:43:03;;;;;;;20.52;18.42;;;;;;;1.77;64.02;96830.50;5116314;28;20180;-71
2022/12/19 07:45:30;;;;;;;20.83;18.63;;;;;;;1.82;63.73;96838.75;5115312;28;20191;-70
2022/12/19 07:47:59;;;;;;;18.65;16.85;;;;;;;1.85;63.61;96840.94;5116270;28;20243;-70
2022/12/19 07:50:26;;;;;;;17.33;15.55;;;;;;;1.91;63.87;96845.38;5115407;28;20206;-70
2022/12/19 07:52:53;;;;;;;16.50;14.80;;;;;;;1.96;63.49;96853.63;5115537;28;20195;-70
2022/12/19 07:55:20;;;;;;;17.05;15.32;;;;;;;1.93;63.25;96857.66;5115236;28;20290;-70
2022/12/19 07:57:47;;;;;;;18.60;16.75;;;;;;;1.87;63.14;96853.22;5115183;28;20202;-70
2022/12/19 08:00:16;;;;;;;18.52;16.10;;;;;;;1.88;63.37;96857.59;5115235;28;20545;-70
2022/12/19 08:02:43;;;;;;;20.75;18.67;;;;;;;1.82;63.01;96865.97;5115662;28;20192;-70
2022/12/19 08:05:10;;;;;;;19.27;17.35;;;;;;;1.82;63.36;96866.78;5115726;28;20244;-70
2022/12/19 08:07:37;;;;;;;18.30;16.48;;;;;;;1.83;62.84;96867.59;5115111;28;20267;-70
2022/12/19 08:10:06;;;;;;;20.70;18.70;;;;;;;1.86;63.50;96870.63;5115764;28;20198;-70
2022/12/19 08:12:33;;;;;;;21.35;18.20;;;;;;;1.82;63.52;96871.41;5115647;28;20223;-70
2022/12/19 08:15:00;;;;;;;20.48;18.52;;;;;;;1.83;63.43;96867.59;5114690;28;20596;-70
2022/12/19 08:17:28;;;;;;;19.90;17.95;;;;;;;1.84;63.03;96870.06;5115239;28;20196;-70
2022/12/19 08:19:55;;;;;;;24.58;22.17;;;;;;;1.85;63.10;96876.31;5115324;28;20180;-71
2022/12/19 08:22:22;;;;;;;25.27;22.77;;;;;;;1.90;64.06;96876.41;5114394;28;20238;-71
2022/12/19 08:24:49;;;;;;;22.77;20.67;;;;;;;1.88;63.33;96873.91;5114770;28;20528;-71
2022/12/19 08:27:16;;;;;;;21.70;18.77;;;;;;;1.86;63.21;96881.53;5114810;28;20215;-71
2022/12/19 08:29:43;;;;;;;21.35;19.15;;;;;;;1.87;64.11;96872.28;5115235;28;20196;-71
2022/12/19 08:32:10;;;;;;;23.15;20.80;;;;;;;1.84;63.96;96871.97;5115386;28;20215;-71
2022/12/19 08:34:40;;;;;;;23.95;21.55;;;;;;;1.85;63.72;96873.59;5115946;28;20191;-71
2022/12/19 08:37:06;;;;;;;24.98;22.55;;;;;;;1.90;63.67;96874.50;5114799;28;20187;-71
2022/12/19 08:39:33;;;;;;;25.13;22.63;;;;;;;1.87;63.51;96871.47;5115043;28;20210;-71
2022/12/19 08:42:00;;;;;;;24.50;21.48;;;;;;;1.89;63.81;96877.47;5117319;28;20183;-71
2022/12/19 08:44:27;;;;;;;25.95;23.45;;;;;;;1.91;64.13;96873.41;5119187;28;20187;-70
2022/12/19 08:46:53;;;;;;;28.58;25.73;;;;;;;1.92;64.04;96871.50;5118994;28;20208;-71
2022/12/19 08:49:20;;;;;;;33.25;29.95;;;;;;;1.94;63.82;96861.19;5118866;28;20206;-71
2022/12/19 08:51:49;;;;;;;30.35;27.35;;;;;;;1.96;63.83;96855.50;5118680;28;20203;-71
2022/12/19 08:54:16;;;;;;;33.75;30.23;;;;;;;1.98;63.70;96853.34;5118752;28;20570;-71
2022/12/19 08:56:42;;;;;;;39.83;35.92;;;;;;;1.99;63.93;96855.81;5119005;28;20200;-71
2022/12/19 08:59:09;;;;;;;42.40;38.33;;;;;;;1.96;64.05;96855.50;5119890;28;20203;-71
2022/12/19 09:01:36;;;;;;;45.30;41.05;;;;;;;1.98;63.74;96848.72;5118491;28;20203;-71
2022/12/19 09:04:04;;;;;;;47.33;42.83;;;;;;;1.99;63.83;96847.63;5119137;28;20248;-71
2022/12/19 09:06:31;;;;;;;47.80;43.30;;;;;;;2.03;64.50;96848.78;5118714;28;20196;-71
2022/12/19 09:08:59;;;;;;;51.72;46.83;;;;;;;2.01;64.46;96845.50;5118235;28;20219;-71
2022/12/19 09:11:26;;;;;;;52.83;47.72;;;;;;;2.06;64.16;96831.94;5119808;28;20180;-71
2022/12/19 09:13:55;;;;;;;49.75;45.05;;;;;;;2.02;64.23;96830.81;5118772;28;20200;-71
2022/12/19 09:16:23;;;;;;;37.15;33.60;;;;;;;2.09;64.53;96822.44;5118798;28;20191;-70
2022/12/19 09:18:52;;;;;;;34.38;31.08;;;;;;;2.13;64.16;96821.66;5119494;28;20192;-71
2022/12/19 09:21:21;;;;;;;39.08;35.03;;;;;;;2.17;64.08;96824.69;5117968;28;20231;-70
2022/12/19 09:23:49;;;;;;;42.83;38.58;;;;;;;2.32;64.50;96813.94;5118072;28;20210;-70
2022/12/19 09:26:18;;;;;;;37.70;33.85;;;;;;;2.43;64.35;96798.53;5118866;28;20184;-70
2022/12/19 09:28:46;;;;;;;34.92;31.40;;;;;;;2.48;64.12;96800.50;5119033;28;20214;-71
2022/12/19 09:31:14;;;;;;;33.15;29.77;;;;;;;2.53;64.13;96803.25;5118222;28;20206;-71
2022/12/19 09:33:41;;;;;;;32.53;29.17;;;;;;;2.56;64.71;96800.00;5119131;28;20195;-71
2022/12/19 09:36:10;;;;;;;33.15;29.67;;;;;;;2.62;64.18;96793.53;5119172;28;20180;-70
2022/12/19 09:38:37;;;;;;;32.72;29.33;;;;;;;2.68;63.93;96786.22;5119070;28;20211;-70
2022/12/19 09:41:16;;;;;;;31.33;28.10;;;;;;;2.60;64.29;96780.16;5118281;28;20184;-70
2022/12/19 09:43:53;;;;;;;26.40;23.75;;;;;;;2.62;64.62;96774.47;5118425;28;20196;-71
2022/12/19 09:46:21;;;;;;;31.35;23.65;;;;;;;2.72;65.18;96779.97;5118982;28;20184;-71
2022/12/19 09:48:49;;;;;;;24.17;21.67;;;;;;;2.58;66.39;96779.63;5117605;28;20226;-70
2022/12/19 09:51:23;;;;;;;24.58;22.08;;;;;;;2.60;66.00;96776.63;5117311;28;20204;-71
2022/12/19 09:54:00;;;;;;;21.83;19.52;;;;;;;2.44;66.30;96775.69;5118405;28;20194;-70
2022/12/19 09:56:29;;;;;;;21.30;19.02;;;;;;;2.19;67.72;96780.91;5118167;28;20643;-71
2022/12/19 09:59:01;;;;;;;22.40;20.10;;;;;;;2.25;68.09;96763.50;5118559;28;20662;-71
2022/12/19 10:01:32;;;;;;;21.90;19.17;;;;;;;2.44;68.13;96769.41;5118101;28;20203;-71
2022/12/19 10:04:03;;;;;;;21.88;19.63;;;;;;;2.51;67.82;96765.38;5119262;28;20184;-71
2022/12/19 10:06:31;;;;;;;20.65;18.50;;;;;;;2.50;67.91;96762.91;5118294;28;20192;-71
2022/12/19 10:09:00;;;;;;;20.08;17.20;;;;;;;2.51;68.36;96768.13;5117743;28;20220;-71
2022/12/19 10:11:46;;;;;;;20.70;18.58;;;;;;;2.48;69.34;96757.72;5117555;28;20615;-72
2022/12/19 10:14:25;;;;;;;21.17;19.05;;;;;;;2.59;68.77;96753.19;5117609;28;20211;-71
2022/12/19 10:17:02;;;;;;;20.85;18.63;;;;;;;2.73;68.20;96743.50;5117578;28;20199;-72
2022/12/19 10:19:36;;;;;;;21.48;19.27;;;;;;;2.73;67.51;96738.03;5117911;28;20226;-71
2022/12/19 10:22:12;;;;;;;20.25;18.25;;;;;;;2.50;68.23;96747.38;5117376;28;20544;-71
2022/12/19 10:24:53;;;;;;;22.27;20.08;;;;;;;2.58;68.92;96736.03;5117720;28;20306;-71
2022/12/19 10:27:29;;;;;;;22.02;19.88;;;;;;;2.82;68.37;96722.00;5118025;28;20199;-72
2022/12/19 10:30:03;;;;;;;21.17;18.67;;;;;;;2.92;67.63;96721.25;5117376;28;20196;-72
2022/12/19 10:32:36;;;;;;;21.33;19.13;;;;;;;2.91;67.43;96716.91;5117316;28;20191;-71
2022/12/19 10:35:12;;;;;;;23.67;21.05;;;;;;;2.82;67.92;96713.81;5116898;28;20284;-71
2022/12/19 10:37:43;;;;;;;21.67;19.48;;;;;;;2.86;67.94;96718.47;5117623;28;20196;-71
2022/12/19 10:40:14;;;;;;;24.30;21.80;;;;;;;2.86;68.02;96707.56;5116958;28;20198;-71
2022/12/19 10:42:51;;;;;;;23.80;21.30;;;;;;;2.79;68.31;96706.16;5116928;28;20198;-71
2022/12/19 10:45:21;;;;;;;20.90;18.65;;;;;;;2.86;68.17;96707.56;5116738;28;20188;-71
2022/12/19 10:47:50;;;;;;;22.05;19.75;;;;;;;2.75;68.42;96705.06;5116821;28;20216;-71
2022/12/19 10:50:21;;;;;;;23.85;21.17;;;;;;;2.71;68.75;96696.59;5117307;28;20603;-71
2022/12/19 10:52:51;;;;;;;20.88;18.77;;;;;;;2.78;68.72;96699.09;5117159;28;20204;-71
2022/12/19 10:55:24;;;;;;;24.98;22.48;;;;;;;2.80;67.86;96699.66;5116709;28;20192;-71
2022/12/19 10:57:51;;;;;;;23.38;21.02;;;;;;;2.79;68.09;96698.00;5117464;28;20203;-71
2022/12/19 11:00:20;;;;;;;22.45;20.20;;;;;;;2.73;67.92;96705.34;5118003;28;20199;-71
2022/12/19 11:02:49;;;;;;;22.85;20.63;;;;;;;2.74;68.07;96700.72;5117426;28;20236;-71
2022/12/19 11:05:26;;;;;;;21.13;18.95;;;;;;;2.74;68.29;96700.72;5117160;28;20238;-71
2022/12/19 11:08:00;;;;;;;24.00;21.60;;;;;;;2.77;68.47;96697.47;5117549;28;20222;-71
2022/12/19 11:10:38;;;;;;;25.40;22.80;;;;;;;2.76;68.50;96704.81;5117253;28;20587;-71
2022/12/19 11:13:18;;;;;;;25.38;22.88;;;;;;;2.79;68.74;96698.00;5116577;28;20631;-71
2022/12/19 11:15:52;;;;;;;21.58;19.38;;;;;;;2.86;68.27;96695.84;5116916;28;20704;-70
2022/12/19 11:18:18;;;;;;;21.45;19.25;;;;;;;2.88;68.33;96699.16;5118424;28;20512;-71
2022/12/19 11:20:57;;;;;;;22.33;19.92;;;;;;;2.90;68.57;96696.97;5117734;28;20218;-71
2022/12/19 11:23:25;;;;;;;24.48;21.88;;;;;;;2.80;69.01;96692.31;5116289;28;20206;-71
2022/12/19 11:25:59;;;;;;;24.95;22.52;;;;;;;2.81;68.80;96688.50;5117362;28;20188;-71
2022/12/19 11:28:29;;;;;;;23.55;21.05;;;;;;;2.88;68.98;96690.97;5117787;28;20243;-71
2022/12/19 11:31:02;;;;;;;21.90;19.80;;;;;;;2.96;68.92;96686.94;5117111;28;20538;-71
2022/12/19 11:33:29;;;;;;;23.45;21.13;;;;;;;3.03;68.52;96682.06;5116652;28;20188;-71
2022/12/19 11:35:58;;;;;;;22.95;20.58;;;;;;;2.98;68.16;96696.50;5116470;28;20220;-71
2022/12/19 11:38:36;;;;;;;23.42;20.95;;;;;;;2.90;68.50;96694.25;5116585;28;20198;-71